Time;durP1;ratioP1;P1;durP2;ratioP2;P2;SDS_P1;SDS_P2;PMS_P1;PMS_P2;Temp;Humidity;BMP_temperature;BMP_pressure;BME280_temperature;BME280_humidity;BME280_pressure;Samples;Min_cycle;Max_cycle;Signal;HPM_P1;HPM_P2
2023/02/04 00:00:19;;;;;;;2.75;0.63;;;;;;;2.59;100.00;94201.53;2582904;22;20008;-85
2023/02/04 00:01:20;;;;;;;0.30;0.30;;;;;;;2.43;100.00;94194.38;2583310;22;20011;-83
2023/02/04 00:02:21;;;;;;;14.35;5.10;;;;;;;2.53;100.00;94199.16;2595531;22;20000;-85
2023/02/04 00:03:23;;;;;;;4.32;1.75;;;;;;;2.78;100.00;94199.03;2595099;22;20012;-84
2023/02/04 00:04:24;;;;;;;8.15;3.28;;;;;;;2.44;100.00;94211.72;2583551;22;20320;-83
2023/02/04 00:05:25;;;;;;;5.78;2.08;;;;;;;2.44;100.00;94205.69;2595888;22;20045;-84
2023/02/04 00:06:26;;;;;;;1.17;0.60;;;;;;;2.42;100.00;94200.00;2583222;22;20031;-84
2023/02/04 00:07:27;;;;;;;1.73;1.00;;;;;;;2.33;100.00;94202.78;2582784;22;20015;-82
2023/02/04 00:08:28;;;;;;;2.85;1.40;;;;;;;2.58;100.00;94205.28;2582908;22;20000;-82
2023/02/04 00:09:29;;;;;;;1.25;0.73;;;;;;;2.71;100.00;94194.31;2595638;22;20410;-83
2023/02/04 00:10:31;;;;;;;1.17;0.70;;;;;;;2.65;100.00;94195.69;2595546;22;20008;-83
2023/02/04 00:11:32;;;;;;;3.17;0.73;;;;;;;2.43;100.00;94194.38;2582436;22;20407;-83
2023/02/04 00:12:35;;;;;;;4.82;2.25;;;;;;;2.55;100.00;94198.03;2570206;23;20004;-83
2023/02/04 00:13:36;;;;;;;0.77;0.60;;;;;;;2.56;100.00;94202.22;2583196;22;20027;-81
2023/02/04 00:14:37;;;;;;;20.33;6.35;;;;;;;2.52;100.00;94197.63;2595309;22;20466;-83
2023/02/04 00:15:38;;;;;;;11.93;4.63;;;;;;;2.38;100.00;94201.78;2582832;22;20023;-82
2023/02/04 00:16:42;;;;;;;3.80;1.70;;;;;;;2.36;100.00;94191.53;2584278;22;20000;-84
2023/02/04 00:17:43;;;;;;;8.57;4.13;;;;;;;2.30;100.00;94189.50;2596454;22;20030;-80
2023/02/04 00:18:44;;;;;;;6.47;3.42;;;;;;;2.33;100.00;94194.06;2595386;22;20022;-82
2023/02/04 00:19:45;;;;;;;2.17;1.40;;;;;;;2.46;100.00;94191.06;2582841;22;20000;-85
2023/02/04 00:20:46;;;;;;;6.43;2.65;;;;;;;2.39;100.00;94185.59;2582955;22;20067;-84
2023/02/04 00:21:48;;;;;;;7.72;3.88;;;;;;;2.67;100.00;94185.53;2570912;22;20087;-83
2023/02/04 00:22:50;;;;;;;0.60;0.60;;;;;;;2.71;100.00;94188.28;2583795;22;20000;-84
2023/02/04 00:23:51;;;;;;;0.40;0.40;;;;;;;2.73;100.00;94189.50;2582687;22;20385;-85
2023/02/04 00:24:52;;;;;;;0.90;0.60;;;;;;;2.62;100.00;94190.31;2582626;22;20283;-83
2023/02/04 00:25:53;;;;;;;7.18;3.22;;;;;;;2.63;100.00;94197.13;2582837;22;20004;-82
2023/02/04 00:26:56;;;;;;;5.30;2.22;;;;;;;2.57;100.00;94190.56;2582516;23;20004;-84
2023/02/04 00:27:57;;;;;;;1.88;0.90;;;;;;;2.59;100.00;94190.97;2570983;22;20000;-83
2023/02/04 00:28:58;;;;;;;4.03;1.08;;;;;;;2.59;100.00;94197.06;2595283;22;20030;-85
2023/02/04 00:29:59;;;;;;;0.40;0.40;;;;;;;2.83;100.00;94180.28;2582333;22;20028;-82
2023/02/04 00:31:00;;;;;;;0.38;0.38;;;;;;;2.85;100.00;94188.63;2582718;22;20031;-83
2023/02/04 00:32:01;;;;;;;2.25;0.80;;;;;;;2.94;100.00;94181.34;2582846;22;20047;-85
2023/02/04 00:33:09;;;;;;;3.50;1.48;;;;;;;2.86;100.00;94184.16;2570186;23;20026;-83
2023/02/04 00:34:12;;;;;;;;;;;;;;;2.68;100.00;94181.06;2592572;22;20410;-81
2023/02/04 00:35:13;;;;;;;1.85;0.60;;;;;;;2.83;100.00;94187.44;2598831;22;19903;-82
2023/02/04 00:36:14;;;;;;;1.10;0.80;;;;;;;2.90;100.00;94185.00;2598228;22;20071;-83
2023/02/04 00:37:15;;;;;;;0.50;0.50;;;;;;;2.94;100.00;94183.97;2597113;22;20445;-83
2023/02/04 00:38:16;;;;;;;2.97;1.10;;;;;;;3.00;100.00;94179.97;2609188;22;20355;-82
2023/02/04 00:39:17;;;;;;;2.63;1.35;;;;;;;2.90;100.00;94185.00;2596148;22;20004;-82
2023/02/04 00:40:18;;;;;;;1.63;0.60;;;;;;;2.91;100.00;94186.53;2596005;22;20007;-84
2023/02/04 00:41:22;;;;;;;0.85;0.70;;;;;;;3.07;100.00;94189.16;2582861;22;20479;-84
2023/02/04 00:42:22;;;;;;;2.20;1.05;;;;;;;2.95;100.00;94182.88;2571588;22;20692;-83
2023/02/04 00:43:23;;;;;;;1.17;0.80;;;;;;;2.87;100.00;94189.06;2570116;22;20028;-84
2023/02/04 00:44:24;;;;;;;0.80;0.80;;;;;;;2.89;100.00;94189.50;2570289;23;20134;-82
2023/02/04 00:45:25;;;;;;;2.42;1.50;;;;;;;2.76;100.00;94185.38;2582870;22;20012;-83
2023/02/04 00:46:26;;;;;;;0.80;0.80;;;;;;;2.77;100.00;94189.59;2582714;23;20012;-84
2023/02/04 00:47:27;;;;;;;1.85;0.90;;;;;;;2.71;100.00;94185.66;2595735;22;20049;-84
2023/02/04 00:48:28;;;;;;;3.50;1.20;;;;;;;2.90;100.00;94191.03;2595598;22;20382;-83
2023/02/04 00:49:29;;;;;;;3.30;1.33;;;;;;;3.09;100.00;94192.22;2569969;23;19996;-85
2023/02/04 00:50:31;;;;;;;0.98;0.80;;;;;;;3.13;100.00;94185.16;2582727;22;20064;-82
2023/02/04 00:51:31;;;;;;;4.25;1.40;;;;;;;2.84;100.00;94175.78;2569888;22;20295;-83
2023/02/04 00:52:32;;;;;;;1.98;1.42;;;;;;;2.95;100.00;94171.53;2582848;22;20000;-84
2023/02/04 00:53:33;;;;;;;5.63;2.03;;;;;;;2.88;100.00;94187.97;2582493;22;20004;-86
2023/02/04 00:54:34;;;;;;;1.20;1.10;;;;;;;3.10;100.00;94180.56;2582880;22;20014;-83
2023/02/04 00:55:35;;;;;;;3.85;1.60;;;;;;;3.03;100.00;94181.16;2595011;22;20030;-85
2023/02/04 00:56:36;;;;;;;2.45;1.20;;;;;;;3.09;100.00;94189.59;2595724;22;20053;-83
2023/02/04 00:57:38;;;;;;;2.17;1.60;;;;;;;2.96;100.00;94186.28;2570813;23;20011;-84
2023/02/04 00:58:39;;;;;;;4.75;2.30;;;;;;;3.10;100.00;94185.84;2570365;22;20076;-84
2023/02/04 00:59:39;;;;;;;1.30;1.10;;;;;;;3.19;100.00;94181.16;2569998;23;20096;-83
2023/02/04 01:00:41;;;;;;;4.07;1.80;;;;;;;3.15;100.00;94188.22;2582813;22;20091;-83
2023/02/04 01:01:43;;;;;;;1.80;1.38;;;;;;;3.06;100.00;94185.75;2582772;22;20430;-82
2023/02/04 01:02:44;;;;;;;2.05;1.58;;;;;;;3.05;100.00;94186.09;2570733;22;20001;-86
2023/02/04 01:03:45;;;;;;;2.40;1.65;;;;;;;2.87;100.00;94190.94;2570255;22;20004;-81
2023/02/04 01:04:46;;;;;;;3.92;2.05;;;;;;;2.87;100.00;94191.72;2582614;22;20504;-85
2023/02/04 01:05:47;;;;;;;3.78;1.90;;;;;;;2.83;100.00;94185.56;2595722;22;20049;-84
2023/02/04 01:06:48;;;;;;;4.13;2.10;;;;;;;2.76;100.00;94191.44;2595232;22;20000;-83
2023/02/04 01:07:49;;;;;;;2.20;1.90;;;;;;;2.96;100.00;94187.03;2570374;23;20009;-85
2023/02/04 01:08:50;;;;;;;2.63;1.80;;;;;;;2.87;100.00;94180.38;2595413;22;20437;-82
2023/02/04 01:09:51;;;;;;;2.90;2.20;;;;;;;2.91;100.00;94186.53;2582787;22;20004;-83
2023/02/04 01:10:52;;;;;;;5.05;2.13;;;;;;;2.99;100.00;94182.97;2595030;22;20008;-83
2023/02/04 01:11:53;;;;;;;4.75;2.75;;;;;;;2.90;100.00;94190.28;2595290;22;19995;-82
2023/02/04 01:12:54;;;;;;;16.15;7.90;;;;;;;2.77;100.00;94192.22;2595362;22;20015;-85
2023/02/04 01:13:55;;;;;;;12.00;5.55;;;;;;;2.88;100.00;94198.53;2582763;22;20000;-82
2023/02/04 01:14:56;;;;;;;5.22;2.47;;;;;;;2.89;100.00;94204.56;2583125;22;20011;-83
2023/02/04 01:15:57;;;;;;;9.80;4.13;;;;;;;2.74;100.00;94212.13;2582712;22;20441;-85
2023/02/04 01:16:59;;;;;;;10.98;5.05;;;;;;;2.76;100.00;94215.19;2569950;22;20004;-83
2023/02/04 01:18:01;;;;;;;15.65;6.50;;;;;;;2.77;100.00;94218.63;2570215;22;20309;-82
2023/02/04 01:19:02;;;;;;;19.48;7.30;;;;;;;2.75;100.00;94216.31;2583033;22;20449;-84
2023/02/04 01:20:03;;;;;;;30.00;9.70;;;;;;;2.71;100.00;94214.69;2595491;22;20011;-84
2023/02/04 01:21:06;;;;;;;70.85;16.23;;;;;;;2.77;100.00;94210.72;2582466;22;20081;-82
2023/02/04 01:22:09;;;;;;;25.08;7.47;;;;;;;2.76;100.00;94206.50;2583200;22;20000;-83
2023/02/04 01:23:10;;;;;;;15.95;5.22;;;;;;;2.73;100.00;94215.13;2570784;22;20455;-82
2023/02/04 01:24:11;;;;;;;9.90;4.45;;;;;;;3.01;100.00;94210.53;2570353;23;20000;-82
2023/02/04 01:25:12;;;;;;;5.30;2.75;;;;;;;3.18;100.00;94213.97;2582919;22;20050;-82
2023/02/04 01:26:13;;;;;;;16.00;6.38;;;;;;;3.18;100.00;94208.69;2582599;23;20410;-85
2023/02/04 01:27:14;;;;;;;7.03;2.95;;;;;;;3.28;100.00;94213.44;2582582;22;20027;-83
2023/02/04 01:28:15;;;;;;;3.90;2.60;;;;;;;3.25;100.00;94212.25;2582711;22;20004;-83
2023/02/04 01:29:16;;;;;;;13.57;5.85;;;;;;;3.12;100.00;94212.69;2606881;22;20015;-83
2023/02/04 01:30:17;;;;;;;10.18;4.63;;;;;;;3.13;100.00;94209.69;2595276;22;20004;-83
2023/02/04 01:31:18;;;;;;;22.08;7.93;;;;;;;2.99;100.00;94212.00;2608093;22;19999;-83
2023/02/04 01:32:19;;;;;;;9.68;4.60;;;;;;;2.91;100.00;94218.22;2607963;22;20035;-84
2023/02/04 01:33:20;;;;;;;6.97;4.63;;;;;;;2.88;100.00;94203.81;2582551;22;20011;-83
2023/02/04 01:34:21;;;;;;;8.98;6.68;;;;;;;2.93;100.00;94202.78;2570112;23;20482;-83
2023/02/04 01:35:22;;;;;;;8.07;6.88;;;;;;;2.95;100.00;94211.16;2595127;22;20008;-83
2023/02/04 01:36:23;;;;;;;4.90;3.72;;;;;;;2.94;100.00;94202.47;2582632;22;20004;-84
2023/02/04 01:37:24;;;;;;;4.47;4.05;;;;;;;2.99;100.00;94204.84;2582836;22;20004;-83
2023/02/04 01:38:25;;;;;;;3.90;3.42;;;;;;;2.91;100.00;94208.41;2582664;22;20008;-82
2023/02/04 01:39:26;;;;;;;3.83;3.42;;;;;;;2.86;100.00;94207.91;2581921;22;20395;-84
2023/02/04 01:40:27;;;;;;;3.75;2.47;;;;;;;3.01;100.00;94209.78;2595303;22;20003;-84
2023/02/04 01:41:39;;;;;;;3.08;1.70;;;;;;;3.03;100.00;94210.22;2594899;22;20051;-84
2023/02/04 01:42:41;;;;;;;3.63;1.92;;;;;;;2.93;100.00;94203.53;2584826;22;20098;-82
2023/02/04 01:43:42;;;;;;;2.67;2.45;;;;;;;3.06;100.00;94203.47;2583296;22;20431;-84
2023/02/04 01:44:44;;;;;;;2.78;2.55;;;;;;;3.00;100.00;94206.38;2595857;22;20003;-82
2023/02/04 01:45:56;;;;;;;2.22;1.85;;;;;;;2.82;100.00;94210.44;2587401;22;20340;-82
2023/02/04 01:46:57;;;;;;;1.52;1.42;;;;;;;3.11;100.00;94200.56;2595475;22;20326;-82
2023/02/04 01:47:59;;;;;;;4.60;1.40;;;;;;;3.37;100.00;94207.97;2583381;22;20082;-81
2023/02/04 01:49:00;;;;;;;4.90;1.63;;;;;;;3.20;100.00;94211.72;2589957;22;20054;-82
2023/02/04 01:50:01;;;;;;;1.73;1.30;;;;;;;3.09;100.00;94203.56;2591288;22;20027;-83
2023/02/04 01:51:13;;;;;;;1.40;1.25;;;;;;;3.03;100.00;94195.13;2591440;22;20007;-81
2023/02/04 01:52:14;;;;;;;1.38;1.10;;;;;;;2.91;100.00;94202.38;2594058;22;20003;-81
2023/02/04 01:53:22;;;;;;;1.70;1.30;;;;;;;3.02;100.00;94193.59;2578896;22;20000;-85
2023/02/04 01:54:26;;;;;;;1.20;1.10;;;;;;;2.98;100.00;94213.84;2581363;22;20047;-82
2023/02/04 01:55:29;;;;;;;1.50;1.40;;;;;;;3.12;100.00;94202.13;2563565;23;20057;-85
2023/02/04 01:56:30;;;;;;;1.40;1.30;;;;;;;3.07;100.00;94200.47;2561739;22;20027;-84
2023/02/04 01:57:32;;;;;;;1.10;1.00;;;;;;;3.06;100.00;94192.91;2570623;22;20434;-84
2023/02/04 01:58:33;;;;;;;1.75;0.98;;;;;;;3.18;100.00;94208.69;2570247;22;20083;-83
2023/02/04 01:59:34;;;;;;;1.17;1.08;;;;;;;3.06;100.00;94206.88;2594873;22;20004;-82
2023/02/04 02:00:37;;;;;;;1.05;0.95;;;;;;;2.93;100.00;94208.06;2606940;22;20451;-84
2023/02/04 02:01:56;;;;;;;1.02;0.93;;;;;;;3.10;100.00;94212.25;2581945;22;20450;-82
2023/02/04 02:02:58;;;;;;;1.15;1.00;;;;;;;3.23;100.00;94217.09;2589907;22;20064;-82
2023/02/04 02:04:00;;;;;;;1.55;0.95;;;;;;;3.26;100.00;94207.75;2583169;22;20011;-83
2023/02/04 02:05:01;;;;;;;1.13;0.85;;;;;;;3.18;100.00;94208.69;2583091;22;20015;-84
2023/02/04 02:06:02;;;;;;;1.02;0.90;;;;;;;3.01;100.00;94197.34;2582433;22;20031;-83
2023/02/04 02:07:05;;;;;;;1.13;0.90;;;;;;;2.91;100.00;94197.84;2582522;22;20485;-83
2023/02/04 02:08:07;;;;;;;2.45;1.23;;;;;;;2.85;100.00;94191.28;2570728;22;20000;-83
2023/02/04 02:09:08;;;;;;;1.85;0.70;;;;;;;2.83;100.00;94184.81;2582551;22;20441;-81
2023/02/04 02:10:12;;;;;;;1.80;0.90;;;;;;;2.78;100.00;94186.59;2594642;22;20000;-83
2023/02/04 02:11:13;;;;;;;0.70;0.70;;;;;;;2.93;100.00;94179.78;2594708;22;20064;-83
2023/02/04 02:12:14;;;;;;;1.13;0.90;;;;;;;3.03;100.00;94181.16;2595067;22;20007;-85
2023/02/04 02:13:18;;;;;;;1.08;0.70;;;;;;;3.10;100.00;94191.13;2582368;22;20477;-83
2023/02/04 02:14:19;;;;;;;1.05;0.90;;;;;;;3.02;100.00;94188.28;2583025;22;20486;-82
2023/02/04 02:15:20;;;;;;;0.98;0.80;;;;;;;2.98;100.00;94184.81;2595125;22;20004;-82
2023/02/04 02:16:21;;;;;;;1.05;0.73;;;;;;;3.35;100.00;94186.44;2582646;22;20011;-83
2023/02/04 02:43:13;;;;;;;0.77;0.65;;;;;;;3.08;100.00;94182.78;2564620;22;20067;-82
2023/02/04 02:44:16;;;;;;;0.77;0.50;;;;;;;3.24;100.00;94179.00;2547968;23;20048;-83
2023/02/04 02:45:25;;;;;;;0.55;0.43;;;;;;;3.14;100.00;94186.69;2537912;23;20013;-81
2023/02/04 02:46:26;;;;;;;0.63;0.63;;;;;;;3.11;100.00;94172.28;2552191;23;20065;-80
2023/02/04 02:47:29;;;;;;;0.63;0.63;;;;;;;3.17;100.00;94176.22;2538114;23;20002;-86
2023/02/04 02:48:30;;;;;;;0.60;0.50;;;;;;;3.16;100.00;94176.53;2526141;23;20105;-85
2023/02/04 02:49:33;;;;;;;0.70;0.63;;;;;;;3.30;100.00;94168.97;2524809;23;20106;-84
2023/02/04 02:50:35;;;;;;;0.93;0.73;;;;;;;3.30;100.00;94166.31;2525412;23;20006;-85
2023/02/04 02:51:36;;;;;;;0.70;0.70;;;;;;;3.38;100.00;94157.44;2536277;23;20269;-82
2023/02/04 02:52:37;;;;;;;0.80;0.80;;;;;;;3.47;100.00;94160.66;2536651;23;20001;-83
2023/02/04 02:53:38;;;;;;;1.10;0.80;;;;;;;3.28;100.00;94174.56;2536121;23;20424;-85
2023/02/04 02:54:41;;;;;;;1.83;0.80;;;;;;;3.30;100.00;94166.31;2536795;23;20309;-84
2023/02/04 02:55:43;;;;;;;1.75;0.80;;;;;;;3.24;100.00;94179.00;2549007;23;20448;-83
2023/02/04 02:56:44;;;;;;;0.95;0.82;;;;;;;3.23;100.00;94174.06;2536097;23;20459;-83
2023/02/04 02:57:46;;;;;;;1.00;0.90;;;;;;;3.30;100.00;94176.88;2535961;23;20016;-84
2023/02/04 02:58:47;;;;;;;0.77;0.77;;;;;;;3.52;100.00;94180.78;2524942;23;20468;-83
2023/02/04 02:59:49;;;;;;;2.13;0.82;;;;;;;3.27;100.00;94180.22;2524451;23;20006;-82
2023/02/04 03:00:50;;;;;;;1.33;1.20;;;;;;;3.26;100.00;94189.25;2536502;23;20006;-85
2023/02/04 03:02:02;;;;;;;1.65;1.00;;;;;;;3.19;100.00;94184.56;2548640;23;20021;-82
2023/02/04 03:03:16;;;;;;;2.35;1.00;;;;;;;3.23;100.00;94188.03;2549034;23;20009;-84
2023/02/04 03:04:19;;;;;;;1.00;0.90;;;;;;;3.40;100.00;94179.00;2530019;23;20074;-84
2023/02/04 03:05:20;;;;;;;1.50;1.05;;;;;;;3.26;100.00;94176.81;2550052;23;20404;-83
2023/02/04 03:06:25;;;;;;;2.13;1.00;;;;;;;3.38;100.00;94183.88;2549177;23;20423;-82
2023/02/04 03:07:26;;;;;;;1.20;1.00;;;;;;;3.65;100.00;94176.91;2538320;23;20005;-83
2023/02/04 03:08:27;;;;;;;1.00;1.00;;;;;;;3.46;100.00;94179.50;2548293;23;20004;-82
2023/02/04 03:09:29;;;;;;;1.75;0.95;;;;;;;3.28;100.00;94174.56;2536757;23;20054;-82
2023/02/04 03:10:30;;;;;;;2.20;1.30;;;;;;;3.14;100.00;94181.41;2536285;23;20088;-83
2023/02/04 03:11:32;;;;;;;3.75;1.25;;;;;;;3.13;100.00;94187.81;2548624;23;20309;-81
2023/02/04 03:12:33;;;;;;;1.63;1.40;;;;;;;3.09;100.00;94179.03;2548305;23;20009;-84
2023/02/04 03:13:35;;;;;;;2.50;1.50;;;;;;;3.13;100.00;94185.16;2548803;23;20400;-83
2023/02/04 03:14:37;;;;;;;3.17;1.50;;;;;;;3.10;100.00;94188.47;2548212;23;20005;-83
2023/02/04 03:15:40;;;;;;;1.40;1.30;;;;;;;3.10;100.00;94191.88;2536288;23;20014;-85
2023/02/04 03:16:43;;;;;;;2.30;1.27;;;;;;;3.28;100.00;94192.31;2524797;23;20006;-82
2023/02/04 03:17:46;;;;;;;1.95;1.33;;;;;;;3.25;100.00;94190.38;2536790;23;20368;-82
2023/02/04 03:18:49;;;;;;;1.58;1.45;;;;;;;3.15;100.00;94196.91;2548192;23;20001;-83
2023/02/04 03:19:51;;;;;;;1.45;1.35;;;;;;;3.23;100.00;94198.59;2548288;23;20015;-84
2023/02/04 03:20:53;;;;;;;1.40;1.27;;;;;;;3.12;100.00;94189.69;2536427;23;20009;-86
2023/02/04 03:21:56;;;;;;;1.52;1.30;;;;;;;3.24;100.00;94207.31;2524461;23;20080;-81
2023/02/04 03:22:58;;;;;;;1.30;1.20;;;;;;;3.43;100.00;94206.63;2537422;23;20010;-83
2023/02/04 03:24:01;;;;;;;1.55;1.30;;;;;;;3.46;100.00;94201.41;2536376;23;20006;-84
2023/02/04 03:25:03;;;;;;;1.65;1.13;;;;;;;3.44;100.00;94197.56;2537650;23;20085;-83
2023/02/04 03:26:05;;;;;;;1.50;1.10;;;;;;;3.46;100.00;94205.91;2548924;23;20200;-85
2023/02/04 03:27:06;;;;;;;1.15;1.02;;;;;;;3.60;100.00;94208.09;2548872;23;20005;-83
2023/02/04 03:28:08;;;;;;;2.60;1.05;;;;;;;3.46;100.00;94205.91;2548663;23;20001;-84
2023/02/04 03:29:10;;;;;;;1.02;1.00;;;;;;;3.33;100.00;94212.41;2536312;23;20010;-82
2023/02/04 03:30:11;;;;;;;1.20;1.10;;;;;;;3.24;100.00;94204.66;2545847;23;20516;-82
2023/02/04 03:31:12;;;;;;;1.20;1.10;;;;;;;3.25;100.00;94212.25;2558003;23;20068;-84
2023/02/04 03:32:14;;;;;;;1.10;0.98;;;;;;;3.40;100.00;94204.66;2546115;23;20006;-84
2023/02/04 03:33:15;;;;;;;1.23;0.98;;;;;;;3.28;100.00;94211.56;2545863;23;20424;-82
2023/02/04 03:34:16;;;;;;;1.25;1.00;;;;;;;3.23;100.00;94214.47;2533545;23;20090;-83
2023/02/04 03:35:17;;;;;;;1.10;1.00;;;;;;;3.31;100.00;94214.63;2533639;23;20010;-85
2023/02/04 03:36:18;;;;;;;1.42;1.00;;;;;;;3.48;100.00;94222.22;2545948;23;20078;-83
2023/02/04 03:37:19;;;;;;;1.30;0.90;;;;;;;3.31;100.00;94223.34;2533967;23;20002;-84
2023/02/04 03:38:21;;;;;;;2.35;1.00;;;;;;;3.25;100.00;94227.34;2534077;23;20045;-84
2023/02/04 03:39:23;;;;;;;1.10;0.90;;;;;;;3.34;100.00;94230.59;2534009;23;20027;-83
2023/02/04 03:40:24;;;;;;;1.00;1.00;;;;;;;3.47;100.00;94225.97;2546534;23;20017;-82
2023/02/04 03:41:25;;;;;;;0.73;0.73;;;;;;;3.36;100.00;94230.22;2546589;23;20443;-85
2023/02/04 03:42:26;;;;;;;1.10;1.00;;;;;;;3.31;100.00;94225.22;2535068;23;20072;-81
2023/02/04 03:43:27;;;;;;;0.85;0.85;;;;;;;3.22;100.00;94220.88;2535533;23;20044;-83
2023/02/04 03:44:29;;;;;;;0.90;0.90;;;;;;;3.19;100.00;94226.06;2546585;23;20413;-84
2023/02/04 03:45:31;;;;;;;0.90;0.90;;;;;;;3.19;100.00;94229.47;2545818;23;20005;-82
2023/02/04 03:46:32;;;;;;;0.75;0.60;;;;;;;3.16;100.00;94224.09;2545488;23;20364;-83
2023/02/04 03:47:33;;;;;;;0.85;0.80;;;;;;;3.31;100.00;94233.13;2533607;23;20001;-86
2023/02/04 03:48:34;;;;;;;0.90;0.70;;;;;;;3.18;100.00;94229.81;2521061;23;20426;-86
2023/02/04 03:49:36;;;;;;;0.73;0.73;;;;;;;3.13;100.00;94225.56;2521229;23;20006;-82
2023/02/04 03:50:37;;;;;;;1.25;0.70;;;;;;;3.15;100.00;94233.13;2533516;23;20057;-83
2023/02/04 03:51:38;;;;;;;0.65;0.63;;;;;;;3.10;100.00;94225.47;2533379;23;20084;-82
2023/02/04 03:52:39;;;;;;;0.95;0.75;;;;;;;3.17;100.00;94221.13;2545655;23;20002;-83
2023/02/04 03:53:40;;;;;;;0.65;0.55;;;;;;;3.15;100.00;94225.19;2546351;23;20002;-84
2023/02/04 03:54:41;;;;;;;0.70;0.70;;;;;;;3.14;100.00;94215.75;2533441;23;20002;-84
2023/02/04 03:55:43;;;;;;;0.73;0.73;;;;;;;3.10;100.00;94222.81;2545543;23;20006;-83
2023/02/04 03:56:44;;;;;;;0.70;0.70;;;;;;;3.08;100.00;94228.44;2545463;23;20219;-82
2023/02/04 03:57:45;;;;;;;0.60;0.60;;;;;;;3.10;100.00;94217.53;2533593;23;20172;-83
2023/02/04 03:58:47;;;;;;;0.57;0.57;;;;;;;3.03;100.00;94215.50;2533182;23;20328;-83
2023/02/04 03:59:48;;;;;;;0.40;0.40;;;;;;;2.97;100.00;94217.59;2533498;23;20033;-86
2023/02/04 04:00:49;;;;;;;0.60;0.60;;;;;;;2.99;100.00;94220.69;2521253;23;20002;-84
2023/02/04 04:01:51;;;;;;;1.75;0.50;;;;;;;3.01;100.00;94221.09;2533101;23;20349;-83
2023/02/04 04:02:52;;;;;;;0.90;0.70;;;;;;;2.98;100.00;94218.38;2545694;23;20016;-82
2023/02/04 04:03:53;;;;;;;0.60;0.60;;;;;;;2.97;100.00;94227.41;2533009;23;20029;-83
2023/02/04 04:04:54;;;;;;;1.42;0.50;;;;;;;2.93;100.00;94222.03;2521244;23;20006;-85
2023/02/04 04:05:55;;;;;;;0.40;0.40;;;;;;;2.94;100.00;94228.06;2533263;23;20100;-83
2023/02/04 04:06:56;;;;;;;0.40;0.40;;;;;;;2.96;100.00;94229.28;2533652;23;20357;-83
2023/02/04 04:07:57;;;;;;;0.40;0.40;;;;;;;2.94;100.00;94225.44;2532983;23;20021;-81
2023/02/04 04:08:59;;;;;;;0.75;0.75;;;;;;;2.90;100.00;94227.25;2533371;23;19998;-83
2023/02/04 04:10:06;;;;;;;0.50;0.50;;;;;;;3.05;100.00;94228.34;2545479;23;20393;-84
2023/02/04 04:11:09;;;;;;;0.40;0.40;;;;;;;3.10;100.00;94225.47;2557633;23;20372;-85
2023/02/04 04:12:10;;;;;;;0.50;0.50;;;;;;;3.37;100.00;94221.94;2547204;23;20457;-82
2023/02/04 04:13:12;;;;;;;0.40;0.40;;;;;;;3.26;100.00;94219.06;2545980;23;20757;-82
2023/02/04 04:14:13;;;;;;;0.40;0.40;;;;;;;3.16;100.00;94224.88;2545682;23;20001;-84
2023/02/04 04:15:14;;;;;;;0.30;0.30;;;;;;;3.14;100.00;94224.44;2545626;23;20369;-83
2023/02/04 04:16:15;;;;;;;0.40;0.30;;;;;;;3.23;100.00;94221.63;2533457;23;20012;-82
2023/02/04 04:17:16;;;;;;;0.63;0.40;;;;;;;3.19;100.00;94215.50;2533478;23;20421;-84
2023/02/04 04:18:17;;;;;;;0.52;0.38;;;;;;;3.17;100.00;94217.72;2520813;23;20021;-83
2023/02/04 04:19:18;;;;;;;0.30;0.30;;;;;;;3.34;100.00;94214.72;2521763;23;20002;-85
2023/02/04 04:20:19;;;;;;;0.32;0.32;;;;;;;3.41;100.00;94211.47;2533284;23;20001;-83
2023/02/04 04:21:21;;;;;;;0.40;0.40;;;;;;;3.32;100.00;94211.66;2545440;23;20009;-84
2023/02/04 04:22:22;;;;;;;0.30;0.30;;;;;;;3.37;100.00;94213.25;2545941;23;20017;-83
2023/02/04 04:23:23;;;;;;;0.30;0.30;;;;;;;3.52;100.00;94215.91;2545692;23;20356;-84
2023/02/04 04:24:24;;;;;;;0.55;0.50;;;;;;;3.50;100.00;94212.81;2545738;23;20006;-83
2023/02/04 04:25:26;;;;;;;0.55;0.40;;;;;;;3.42;100.00;94223.56;2545199;23;20048;-85
2023/02/04 04:26:27;;;;;;;0.40;0.40;;;;;;;3.26;100.00;94220.94;2545247;23;20006;-84
2023/02/04 04:27:29;;;;;;;0.20;0.20;;;;;;;3.31;100.00;94222.56;2534272;23;20564;-84
2023/02/04 04:28:30;;;;;;;0.80;0.43;;;;;;;3.27;100.00;94217.97;2546312;23;20428;-85
2023/02/04 04:29:31;;;;;;;0.40;0.40;;;;;;;3.21;100.00;94214.06;2546455;23;20005;-82
2023/02/04 04:30:33;;;;;;;1.40;0.30;;;;;;;3.15;100.00;94230.47;2534284;23;20408;-85
2023/02/04 04:31:34;;;;;;;0.32;0.32;;;;;;;3.13;100.00;94222.16;2522260;23;20010;-83
2023/02/04 04:32:35;;;;;;;0.30;0.30;;;;;;;3.21;100.00;94216.69;2533330;23;20069;-84
2023/02/04 04:33:37;;;;;;;0.30;0.30;;;;;;;3.23;100.00;94221.63;2545640;23;20060;-84
2023/02/04 04:34:38;;;;;;;0.30;0.30;;;;;;;3.64;100.00;94214.25;2545908;23;20012;-83
2023/02/04 04:35:40;;;;;;;0.30;0.30;;;;;;;3.39;100.00;94211.81;2545456;23;20012;-82
2023/02/04 04:36:44;;;;;;;0.28;0.28;;;;;;;3.23;100.00;94219.75;2521822;23;20037;-82
2023/02/04 04:37:45;;;;;;;0.25;0.25;;;;;;;3.14;100.00;94224.44;2534735;23;20010;-85
2023/02/04 04:38:47;;;;;;;1.25;0.40;;;;;;;3.12;100.00;94225.91;2545402;23;20535;-84
2023/02/04 04:39:48;;;;;;;0.32;0.32;;;;;;;3.09;100.00;94232.63;2533660;23;20029;-82
2023/02/04 04:40:50;;;;;;;0.30;0.30;;;;;;;3.03;100.00;94232.13;2545039;23;20088;-83
2023/02/04 04:41:51;;;;;;;0.40;0.40;;;;;;;3.04;100.00;94230.22;2545271;23;20108;-85
2023/02/04 04:42:52;;;;;;;0.95;0.30;;;;;;;3.11;100.00;94232.28;2545355;23;20044;-82
2023/02/04 04:43:53;;;;;;;0.30;0.30;;;;;;;3.03;100.00;94232.13;2533068;23;20005;-83
2023/02/04 04:44:55;;;;;;;0.30;0.30;;;;;;;3.01;100.00;94231.66;2533330;23;20013;-84
2023/02/04 04:46:02;;;;;;;1.45;0.30;;;;;;;2.97;100.00;94235.34;2521306;23;20018;-83
2023/02/04 04:47:04;;;;;;;0.20;0.20;;;;;;;3.27;100.00;94235.69;2524091;23;20046;-84
2023/02/04 04:48:05;;;;;;;0.20;0.20;;;;;;;3.27;100.00;94235.69;2520887;23;20495;-85
2023/02/04 04:49:06;;;;;;;0.30;0.30;;;;;;;3.16;100.00;94232.00;2533018;23;20345;-82
2023/02/04 04:50:07;;;;;;;0.90;0.28;;;;;;;3.16;100.00;94235.44;2545702;23;20029;-82
2023/02/04 04:51:09;;;;;;;1.23;0.40;;;;;;;3.12;100.00;94231.19;2533480;23;20006;-84
2023/02/04 04:52:11;;;;;;;0.30;0.30;;;;;;;3.22;100.00;94235.94;2546108;23;20033;-84
2023/02/04 04:53:12;;;;;;;0.30;0.30;;;;;;;3.36;100.00;94235.50;2545406;23;20110;-84
2023/02/04 04:54:13;;;;;;;0.30;0.30;;;;;;;3.26;100.00;94221.72;2521086;23;20103;-84
2023/02/04 04:55:14;;;;;;;0.30;0.30;;;;;;;3.28;100.00;94222.13;2521219;23;20013;-85
2023/02/04 04:56:15;;;;;;;0.30;0.30;;;;;;;3.25;100.00;94222.81;2521344;23;20007;-84
2023/02/04 04:57:16;;;;;;;0.28;0.28;;;;;;;3.16;100.00;94224.09;2521054;23;20073;-84
2023/02/04 04:58:17;;;;;;;0.30;0.30;;;;;;;3.16;100.00;94229.38;2532997;23;20006;-82
2023/02/04 04:59:18;;;;;;;0.30;0.30;;;;;;;3.08;100.00;94228.44;2545418;23;20332;-82
2023/02/04 05:00:20;;;;;;;0.25;0.25;;;;;;;3.13;100.00;94225.56;2545451;23;20006;-82
2023/02/04 05:01:22;;;;;;;0.25;0.25;;;;;;;3.16;100.00;94224.09;2533103;23;20005;-84
2023/02/04 05:02:24;;;;;;;0.20;0.20;;;;;;;3.10;100.00;94220.94;2521300;23;20034;-81
2023/02/04 05:03:26;;;;;;;0.40;0.40;;;;;;;3.09;100.00;94226.56;2521367;23;20117;-82
2023/02/04 05:04:27;;;;;;;0.30;0.30;;;;;;;3.06;100.00;94224.59;2520889;23;20006;-86
2023/02/04 05:05:28;;;;;;;0.35;0.20;;;;;;;3.09;100.00;94231.84;2521275;23;20421;-85
2023/02/04 05:06:29;;;;;;;0.20;0.20;;;;;;;3.23;100.00;94226.91;2533727;23;20433;-83
2023/02/04 05:07:30;;;;;;;0.22;0.22;;;;;;;3.18;100.00;94229.81;2545543;23;20020;-84
2023/02/04 05:08:33;;;;;;;0.20;0.20;;;;;;;3.24;100.00;94231.06;2545372;23;19998;-85
2023/02/04 05:09:34;;;;;;;0.20;0.20;;;;;;;3.16;100.00;94234.66;2522380;23;20002;-82
2023/02/04 05:10:35;;;;;;;0.20;0.20;;;;;;;3.24;100.00;94231.84;2522503;23;20006;-81
2023/02/04 05:11:36;;;;;;;0.20;0.20;;;;;;;3.19;100.00;94234.75;2535059;23;20013;-81
2023/02/04 05:12:37;;;;;;;0.30;0.30;;;;;;;3.15;100.00;94233.88;2534456;23;20005;-82
2023/02/04 05:13:38;;;;;;;0.22;0.22;;;;;;;3.07;100.00;94232.19;2532437;23;20044;-84
2023/02/04 05:14:39;;;;;;;0.20;0.20;;;;;;;3.33;100.00;94244.13;2521120;23;20544;-84
2023/02/04 05:15:41;;;;;;;0.20;0.20;;;;;;;3.26;100.00;94236.81;2520931;23;20516;-85
2023/02/04 05:16:53;;;;;;;0.20;0.20;;;;;;;3.11;100.00;94240.19;2521286;23;20002;-84